createdAt,value
2022-09-01T00:00:17.765Z,90
2022-09-01T00:01:16.413Z,90
2022-09-01T00:02:18.655Z,90
2022-09-01T00:03:15.764Z,90
2022-09-01T00:04:21.855Z,90
2022-09-01T00:05:13.079Z,90
2022-09-01T00:06:21.390Z,90
2022-09-01T00:07:09.288Z,90
2022-09-01T00:08:22.867Z,90
2022-09-01T00:09:17.753Z,90
2022-09-01T00:10:13.623Z,90
2022-09-01T00:11:15.261Z,90
2022-09-01T00:12:18.583Z,90
2022-09-01T00:13:16.454Z,90
2022-09-01T00:14:41.460Z,90
2022-09-01T00:15:14.092Z,90
2022-09-01T00:16:16.745Z,90
2022-09-01T00:17:08.622Z,90
2022-09-01T00:18:16.673Z,90
2022-09-01T00:19:15.831Z,90
2022-09-01T00:20:22.387Z,90
2022-09-01T00:21:15.548Z,90
2022-09-01T00:22:19.257Z,90
2022-09-01T00:23:09.329Z,90
2022-09-01T00:24:18.417Z,90
2022-09-01T00:25:19.936Z,90
2022-09-01T00:26:14.804Z,90
2022-09-01T00:27:17.115Z,90
2022-09-01T00:28:14.089Z,90
2022-09-01T00:29:17.549Z,90
2022-09-01T00:30:18.872Z,90
2022-09-01T00:31:09.548Z,90
2022-09-01T00:32:16.364Z,90
2022-09-01T00:33:16.748Z,90
2022-09-01T00:34:19.427Z,90
2022-09-01T00:35:18.024Z,90
2022-09-01T00:36:09.609Z,90
2022-09-01T00:37:14.839Z,90
2022-09-01T00:38:17.426Z,90
2022-09-01T00:39:19.793Z,90
2022-09-01T00:40:15.967Z,90
2022-09-01T00:41:16.348Z,90
2022-09-01T00:42:18.111Z,90
2022-09-01T00:43:17.271Z,90
2022-09-01T00:44:17.266Z,90
2022-09-01T00:45:19.364Z,90
2022-09-01T00:46:20.490Z,90
2022-09-01T00:47:19.309Z,90
2022-09-01T00:48:13.257Z,90
2022-09-01T00:49:16.672Z,90
2022-09-01T00:50:12.346Z,90
2022-09-01T00:51:16.913Z,90
2022-09-01T00:52:14.825Z,90
2022-09-01T00:53:16.395Z,90
2022-09-01T00:54:12.136Z,90
2022-09-01T00:55:16.349Z,90
2022-09-01T00:56:14.685Z,90
2022-09-01T00:57:17.035Z,90
2022-09-01T00:58:26.030Z,90
2022-09-01T00:59:14.365Z,90
2022-09-01T01:00:21.359Z,90
2022-09-01T01:01:09.751Z,90
2022-09-01T01:02:14.385Z,90
2022-09-01T01:03:17.387Z,90
2022-09-01T01:04:12.916Z,90
2022-09-01T01:05:17.696Z,90
2022-09-01T01:06:19.442Z,90
2022-09-01T01:07:18.477Z,90
2022-09-01T01:08:16.167Z,90
2022-09-01T01:09:21.029Z,90
2022-09-01T01:10:16.575Z,90
2022-09-01T01:11:19.240Z,90
2022-09-01T01:12:17.787Z,90
2022-09-01T01:13:19.568Z,90
2022-09-01T01:14:15.068Z,90
2022-09-01T01:15:15.518Z,90
2022-09-01T01:16:20.852Z,90
2022-09-01T01:17:10.653Z,90
2022-09-01T01:18:23.074Z,90
2022-09-01T01:19:14.044Z,90
2022-09-01T01:20:17.321Z,90
2022-09-01T01:21:15.310Z,90
2022-09-01T01:22:08.767Z,90
2022-09-01T01:23:14.948Z,90
2022-09-01T01:24:20.722Z,90
2022-09-01T01:25:16.669Z,90
2022-09-01T01:26:17.050Z,90
2022-09-01T01:27:16.491Z,90
2022-09-01T01:28:16.928Z,90
2022-09-01T01:29:14.914Z,90
2022-09-01T01:30:18.501Z,90
2022-09-01T01:31:17.237Z,90
2022-09-01T01:32:13.733Z,90
2022-09-01T01:33:19.315Z,90
2022-09-01T01:34:15.851Z,90
2022-09-01T01:35:18.088Z,90
2022-09-01T01:36:16.817Z,90
2022-09-01T01:37:21.125Z,90
2022-09-01T01:38:18.449Z,90
2022-09-01T01:39:19.782Z,90
2022-09-01T01:40:11.036Z,90
2022-09-01T01:41:18.829Z,90
2022-09-01T01:42:14.003Z,90
2022-09-01T01:43:18.073Z,90
2022-09-01T01:44:08.281Z,90
2022-09-01T01:45:13.785Z,90
2022-09-01T01:46:16.277Z,90
2022-09-01T01:47:16.389Z,90
2022-09-01T01:48:14.515Z,90
2022-09-01T01:49:17.882Z,90
2022-09-01T01:50:17.260Z,90
2022-09-01T01:51:16.005Z,90
2022-09-01T01:52:17.386Z,90
2022-09-01T01:53:17.290Z,90
2022-09-01T01:54:17.623Z,90
2022-09-01T01:55:12.310Z,90
2022-09-01T01:56:16.819Z,90
2022-09-01T01:57:18.673Z,90
2022-09-01T01:58:15.921Z,90
2022-09-01T01:59:14.921Z,90
2022-09-01T02:00:16.729Z,90
2022-09-01T02:01:13.356Z,90
2022-09-01T02:02:15.713Z,90
2022-09-01T02:03:15.553Z,90
2022-09-01T02:04:16.606Z,90
2022-09-01T02:05:16.312Z,90
2022-09-01T02:06:16.476Z,90
2022-09-01T02:07:19.038Z,90
2022-09-01T02:08:12.080Z,90
2022-09-01T02:09:17.780Z,90
2022-09-01T02:10:11.667Z,90
2022-09-01T02:11:18.885Z,90
2022-09-01T02:12:11.662Z,90
2022-09-01T02:13:17.305Z,90
2022-09-01T02:14:18.635Z,90
2022-09-01T02:15:13.972Z,90
2022-09-01T02:16:14.700Z,90
2022-09-01T02:17:09.910Z,90
2022-09-01T02:18:25.932Z,90
2022-09-01T02:20:16.871Z,90
2022-09-01T02:21:22.561Z,90
2022-09-01T02:22:20.393Z,90
2022-09-01T02:23:17.183Z,90
2022-09-01T02:24:17.841Z,90
2022-09-01T02:25:14.827Z,90
2022-09-01T02:26:24.472Z,90
2022-09-01T02:27:17.212Z,90
2022-09-01T02:28:18.608Z,90
2022-09-01T02:29:16.358Z,90
2022-09-01T02:30:18.902Z,90
2022-09-01T02:31:16.048Z,90
2022-09-01T02:32:17.237Z,90
2022-09-01T02:33:18.140Z,90
2022-09-01T02:34:09.558Z,90
2022-09-01T02:35:20.583Z,90
2022-09-01T02:36:11.038Z,90
2022-09-01T02:37:18.440Z,90
2022-09-01T02:38:10.372Z,90
2022-09-01T02:39:21.294Z,90
2022-09-01T02:40:11.623Z,90
2022-09-01T02:41:18.245Z,90
2022-09-01T02:42:16.639Z,90
2022-09-01T02:43:15.319Z,90
2022-09-01T02:44:08.904Z,90
2022-09-01T02:45:19.539Z,90
2022-09-01T02:46:15.583Z,90
2022-09-01T02:47:10.703Z,90
2022-09-01T02:48:20.748Z,90
2022-09-01T02:49:11.766Z,90
2022-09-01T02:50:12.019Z,90
2022-09-01T02:51:15.942Z,90
2022-09-01T02:52:15.843Z,90
2022-09-01T02:53:15.189Z,90
2022-09-01T02:54:17.590Z,90
2022-09-01T02:55:18.084Z,90
2022-09-01T02:56:17.846Z,90
2022-09-01T02:57:14.773Z,90
2022-09-01T02:58:22.928Z,90
2022-09-01T02:59:16.944Z,90
2022-09-01T03:00:16.039Z,91
2022-09-01T03:01:19.509Z,91
2022-09-01T03:02:17.643Z,91
2022-09-01T03:03:23.359Z,90
2022-09-01T03:04:17.126Z,90
2022-09-01T03:05:18.464Z,90
2022-09-01T03:06:14.298Z,90
2022-09-01T03:07:16.313Z,90
2022-09-01T03:08:11.750Z,90
2022-09-01T03:09:09.438Z,90
2022-09-01T03:10:13.260Z,90
2022-09-01T03:11:19.526Z,90
2022-09-01T03:12:10.472Z,90
2022-09-01T03:13:18.771Z,90
2022-09-01T03:14:16.627Z,90
2022-09-01T03:15:15.370Z,90
2022-09-01T03:16:21.558Z,90
2022-09-01T03:17:09.994Z,90
2022-09-01T03:18:16.986Z,90
2022-09-01T03:19:22.290Z,91
2022-09-01T03:20:13.503Z,91
2022-09-01T03:21:15.375Z,90
2022-09-01T03:22:15.535Z,91
2022-09-01T03:23:18.360Z,91
2022-09-01T03:24:16.912Z,90
2022-09-01T03:25:13.556Z,91
2022-09-01T03:26:16.420Z,91
2022-09-01T03:27:15.850Z,91
2022-09-01T03:28:19.286Z,90
2022-09-01T03:29:18.791Z,91
2022-09-01T03:30:08.551Z,91
2022-09-01T03:31:16.981Z,91
2022-09-01T03:32:16.176Z,91
2022-09-01T03:33:15.688Z,91
2022-09-01T03:34:14.628Z,91
2022-09-01T03:35:19.401Z,91
2022-09-01T03:36:21.734Z,91
2022-09-01T03:37:08.957Z,91
2022-09-01T03:38:14.893Z,91
2022-09-01T03:39:23.093Z,91
2022-09-01T03:40:15.653Z,91
2022-09-01T03:41:16.778Z,91
2022-09-01T03:42:15.565Z,91
2022-09-01T03:43:15.099Z,91
2022-09-01T03:44:18.466Z,91
2022-09-01T03:45:17.583Z,91
2022-09-01T03:46:18.357Z,91
2022-09-01T03:47:18.278Z,91
2022-09-01T03:48:15.624Z,91
2022-09-01T03:49:13.899Z,91
2022-09-01T03:50:16.434Z,91
2022-09-01T03:51:10.526Z,91
2022-09-01T03:52:17.946Z,91
2022-09-01T03:53:13.723Z,91
2022-09-01T03:54:17.915Z,91
2022-09-01T03:55:11.254Z,91
2022-09-01T03:56:14.170Z,91
2022-09-01T03:57:18.923Z,91
2022-09-01T03:58:16.580Z,91
2022-09-01T03:59:18.288Z,91
2022-09-01T04:00:14.281Z,91
2022-09-01T04:01:20.555Z,91
2022-09-01T04:02:16.394Z,91
2022-09-01T04:03:15.823Z,91
2022-09-01T04:04:10.253Z,91
2022-09-01T04:05:21.126Z,91
2022-09-01T04:06:08.904Z,91
2022-09-01T04:07:23.541Z,91
2022-09-01T04:08:14.921Z,91
2022-09-01T04:09:19.082Z,91
2022-09-01T04:10:17.280Z,91
2022-09-01T04:11:18.291Z,91
2022-09-01T04:12:12.839Z,91
2022-09-01T04:13:19.583Z,91
2022-09-01T04:14:14.940Z,91
2022-09-01T04:15:16.069Z,91
2022-09-01T04:16:10.601Z,91
2022-09-01T04:17:31.991Z,91
2022-09-01T04:19:17.372Z,91
2022-09-01T04:20:16.268Z,91
2022-09-01T04:21:14.001Z,91
2022-09-01T04:22:16.685Z,91
2022-09-01T04:23:14.666Z,91
2022-09-01T04:24:21.450Z,91
2022-09-01T04:25:20.352Z,91
2022-09-01T04:26:09.320Z,91
2022-09-01T04:27:12.856Z,91
2022-09-01T04:28:16.848Z,91
2022-09-01T04:29:11.719Z,91
2022-09-01T04:30:16.658Z,91
2022-09-01T04:31:17.330Z,91
2022-09-01T04:32:17.689Z,91
2022-09-01T04:33:16.804Z,91
2022-09-01T04:34:20.743Z,91
2022-09-01T04:35:13.496Z,91
2022-09-01T04:36:17.027Z,91
2022-09-01T04:37:15.316Z,91
2022-09-01T04:38:18.721Z,91
2022-09-01T04:39:11.740Z,91
2022-09-01T04:40:13.203Z,91
2022-09-01T04:41:11.688Z,91
2022-09-01T04:42:15.666Z,91
2022-09-01T04:43:14.425Z,91
2022-09-01T04:44:17.971Z,91
2022-09-01T04:45:22.735Z,91
2022-09-01T04:46:23.168Z,91
2022-09-01T04:47:13.751Z,91
2022-09-01T04:48:16.589Z,91
2022-09-01T04:49:19.120Z,91
2022-09-01T04:50:13.213Z,91
2022-09-01T04:51:15.802Z,91
2022-09-01T04:52:19.358Z,91
2022-09-01T04:53:17.936Z,91
2022-09-01T04:54:18.442Z,91
2022-09-01T04:55:18.419Z,91
2022-09-01T04:56:16.084Z,91
2022-09-01T04:57:15.304Z,91
2022-09-01T04:58:16.817Z,91
2022-09-01T04:59:16.282Z,91
2022-09-01T05:00:16.585Z,91
2022-09-01T05:01:17.713Z,91
2022-09-01T05:02:15.379Z,91
2022-09-01T05:03:18.977Z,91
2022-09-01T05:04:16.764Z,91
2022-09-01T05:05:15.517Z,91
2022-09-01T05:06:09.474Z,91
2022-09-01T05:07:17.798Z,91
2022-09-01T05:08:09.166Z,91
2022-09-01T05:09:21.001Z,91
2022-09-01T05:10:08.745Z,91
2022-09-01T05:11:15.189Z,91
2022-09-01T05:12:22.240Z,91
2022-09-01T05:13:16.422Z,91
2022-09-01T05:14:15.898Z,91
2022-09-01T05:15:14.166Z,91
2022-09-01T05:16:20.354Z,91
2022-09-01T05:17:16.352Z,91
2022-09-01T05:18:15.442Z,91
2022-09-01T05:19:17.458Z,91
2022-09-01T05:20:23.614Z,91
2022-09-01T05:21:12.313Z,91
2022-09-01T05:22:13.822Z,91
2022-09-01T05:23:16.010Z,91
2022-09-01T05:24:17.788Z,91
2022-09-01T05:25:16.402Z,91
2022-09-01T05:26:18.320Z,91
2022-09-01T05:27:15.910Z,91
2022-09-01T05:28:18.003Z,91
2022-09-01T05:29:15.639Z,91
2022-09-01T05:30:18.068Z,91
2022-09-01T05:31:17.659Z,91
2022-09-01T05:32:15.553Z,91
2022-09-01T05:33:15.998Z,91
2022-09-01T05:34:20.357Z,91
2022-09-01T05:35:15.191Z,91
2022-09-01T05:36:18.037Z,91
2022-09-01T05:37:18.859Z,91
2022-09-01T05:38:15.620Z,91
2022-09-01T05:39:15.506Z,91
2022-09-01T05:40:16.738Z,91
2022-09-01T05:41:18.336Z,91
2022-09-01T05:42:16.447Z,91
2022-09-01T05:43:15.525Z,91
2022-09-01T05:44:14.303Z,91
2022-09-01T05:45:17.251Z,91
2022-09-01T05:46:18.148Z,91
2022-09-01T05:47:11.007Z,91
2022-09-01T05:48:18.871Z,91
2022-09-01T05:49:17.222Z,91
2022-09-01T05:50:20.779Z,91
2022-09-01T05:51:50.585Z,91
2022-09-01T05:52:14.728Z,91
2022-09-01T05:53:23.965Z,91
2022-09-01T05:54:15.128Z,91
2022-09-01T05:55:16.574Z,91
2022-09-01T05:56:10.990Z,91
2022-09-01T05:57:39.537Z,91
2022-09-01T05:58:16.963Z,91
2022-09-01T05:59:32.706Z,91
2022-09-01T06:00:14.688Z,91
2022-09-01T06:01:15.109Z,91
2022-09-01T06:02:15.321Z,91
2022-09-01T06:03:16.872Z,91
2022-09-01T06:04:13.603Z,91
2022-09-01T06:05:17.413Z,90
2022-09-01T06:06:15.003Z,90
2022-09-01T06:07:27.028Z,90
2022-09-01T06:08:09.536Z,90
2022-09-01T06:09:11.294Z,90
2022-09-01T06:10:16.997Z,90
2022-09-01T06:11:16.106Z,90
2022-09-01T06:12:16.317Z,90
2022-09-01T06:13:18.613Z,90
2022-09-01T06:14:15.699Z,90
2022-09-01T06:15:12.682Z,90
2022-09-01T06:16:16.960Z,90
2022-09-01T06:17:16.887Z,90
2022-09-01T06:18:16.420Z,90
2022-09-01T06:19:18.788Z,90
2022-09-01T06:20:17.427Z,90
2022-09-01T06:21:12.288Z,90
2022-09-01T06:22:19.556Z,90
2022-09-01T06:23:15.006Z,90
2022-09-01T06:24:16.934Z,90
2022-09-01T06:25:15.136Z,90
2022-09-01T06:26:14.608Z,90
2022-09-01T06:27:15.677Z,90
2022-09-01T06:28:14.443Z,90
2022-09-01T06:29:10.214Z,90
2022-09-01T06:30:24.000Z,90
2022-09-01T06:31:18.890Z,90
2022-09-01T06:32:09.900Z,90
2022-09-01T06:33:19.367Z,90
2022-09-01T06:34:18.475Z,90
2022-09-01T06:35:18.962Z,90
2022-09-01T06:36:14.319Z,90
2022-09-01T06:37:21.059Z,90
2022-09-01T06:38:09.660Z,90
2022-09-01T06:39:18.149Z,90
2022-09-01T06:40:17.466Z,90
2022-09-01T06:41:15.620Z,90
2022-09-01T06:42:14.619Z,90
2022-09-01T06:43:19.466Z,90
2022-09-01T06:44:20.550Z,90
2022-09-01T06:45:15.785Z,90
2022-09-01T06:46:11.923Z,90
2022-09-01T06:47:16.799Z,90
2022-09-01T06:48:17.693Z,90
2022-09-01T06:49:19.233Z,90
2022-09-01T06:51:14.443Z,90
2022-09-01T06:51:26.968Z,90
2022-09-01T06:52:17.355Z,90
2022-09-01T06:53:41.156Z,90
2022-09-01T06:54:22.996Z,89
2022-09-01T06:55:19.685Z,89
2022-09-01T06:56:10.738Z,89
2022-09-01T06:58:17.286Z,89
2022-09-01T06:59:14.704Z,89
2022-09-01T07:00:23.422Z,89
2022-09-01T07:01:09.520Z,89
2022-09-01T07:02:20.034Z,89
2022-09-01T07:03:16.653Z,89
2022-09-01T07:04:19.181Z,89
2022-09-01T07:06:06.875Z,89
2022-09-01T07:08:09.635Z,89
2022-09-01T07:10:26.393Z,89
2022-09-01T07:13:17.239Z,89
2022-09-01T07:14:22.787Z,89
2022-09-01T07:16:41.808Z,89
2022-09-01T07:17:22.884Z,89
2022-09-01T07:17:32.910Z,89
2022-09-01T07:18:18.129Z,89
2022-09-01T07:19:17.451Z,89
2022-09-01T07:20:37.009Z,89
2022-09-01T07:22:08.512Z,89
2022-09-01T07:23:06.323Z,89
2022-09-01T07:25:18.839Z,88
2022-09-01T07:26:26.664Z,88
2022-09-01T07:27:16.985Z,88
2022-09-01T07:28:18.070Z,88
2022-09-01T07:29:16.741Z,88
2022-09-01T07:30:26.066Z,88
2022-09-01T07:32:47.411Z,88
2022-09-01T07:32:51.967Z,88
2022-09-01T07:33:50.328Z,88
2022-09-01T07:35:19.904Z,88
2022-09-01T07:39:48.320Z,87
2022-09-01T07:39:51.745Z,87
2022-09-01T07:42:58.544Z,88
2022-09-01T07:42:58.771Z,87
2022-09-01T07:43:07.668Z,87
2022-09-01T07:45:57.952Z,87
2022-09-01T07:48:02.584Z,87
2022-09-01T07:51:34.949Z,86
2022-09-01T07:51:40.322Z,86
2022-09-01T07:52:29.539Z,86
2022-09-01T07:53:10.438Z,86
2022-09-01T07:54:18.367Z,86
2022-09-01T07:55:09.292Z,86
2022-09-01T07:56:19.292Z,85
2022-09-01T07:57:15.005Z,85
2022-09-01T07:58:16.015Z,85
2022-09-01T07:59:21.563Z,85
2022-09-01T08:00:14.730Z,85
2022-09-01T08:01:17.725Z,85
2022-09-01T08:02:16.196Z,85
2022-09-01T08:03:17.175Z,85
2022-09-01T08:04:14.344Z,85
2022-09-01T08:05:18.845Z,84
2022-09-01T08:06:17.708Z,84
2022-09-01T08:07:21.771Z,84
2022-09-01T08:08:35.708Z,84
2022-09-01T08:09:48.610Z,84
2022-09-01T08:11:14.149Z,84
2022-09-01T08:12:15.508Z,84
2022-09-01T08:13:26.375Z,84
2022-09-01T08:14:20.386Z,84
2022-09-01T08:16:19.695Z,84
2022-09-01T08:17:56.575Z,84
2022-09-01T08:18:25.216Z,84
2022-09-01T08:19:23.010Z,83
2022-09-01T08:20:20.300Z,83
2022-09-01T08:21:16.679Z,83
2022-09-01T08:22:09.267Z,83
2022-09-01T08:23:18.674Z,83
2022-09-01T08:24:11.648Z,83
2022-09-01T08:25:18.950Z,83
2022-09-01T08:26:17.176Z,83
2022-09-01T08:27:16.057Z,83
2022-09-01T08:28:16.268Z,82
2022-09-01T08:29:16.979Z,82
2022-09-01T08:30:17.788Z,82
2022-09-01T08:31:17.779Z,82
2022-09-01T08:32:17.176Z,82
2022-09-01T08:33:18.178Z,82
2022-09-01T08:34:12.567Z,82
2022-09-01T08:35:17.531Z,82
2022-09-01T08:36:20.127Z,82
2022-09-01T08:37:17.336Z,81
2022-09-01T08:38:14.738Z,81
2022-09-01T08:39:10.229Z,81
2022-09-01T08:40:13.128Z,81
2022-09-01T08:41:18.869Z,81
2022-09-01T08:42:17.897Z,81
2022-09-01T08:43:15.393Z,80
2022-09-01T08:44:19.291Z,80
2022-09-01T08:45:16.974Z,80
2022-09-01T08:46:19.453Z,80
2022-09-01T08:49:29.486Z,78
2022-09-01T08:49:47.103Z,78
2022-09-01T08:50:14.944Z,78
2022-09-01T08:51:24.961Z,77
2022-09-01T08:52:10.147Z,77
2022-09-01T08:53:16.203Z,77
2022-09-01T08:54:27.686Z,77
2022-09-01T08:55:15.673Z,77
2022-09-01T08:56:16.620Z,77
2022-09-01T08:57:17.268Z,76
2022-09-01T08:58:18.781Z,76
2022-09-01T08:59:19.022Z,76
2022-09-01T09:00:19.088Z,76
2022-09-01T09:01:10.028Z,76
2022-09-01T09:02:17.165Z,76
2022-09-01T09:03:20.047Z,75
2022-09-01T09:04:15.144Z,75
2022-09-01T09:05:27.587Z,75
2022-09-01T09:06:16.165Z,75
2022-09-01T09:07:19.750Z,75
2022-09-01T09:08:18.883Z,75
2022-09-01T09:09:17.296Z,75
2022-09-01T09:11:19.307Z,75
2022-09-01T09:12:16.924Z,74
2022-09-01T09:13:15.559Z,74
2022-09-01T09:14:11.279Z,74
2022-09-01T09:15:17.929Z,74
2022-09-01T09:16:16.271Z,74
2022-09-01T09:17:18.501Z,74
2022-09-01T09:18:56.716Z,74
2022-09-01T09:20:16.993Z,74
2022-09-01T09:21:19.429Z,74
2022-09-01T09:22:15.273Z,74
2022-09-01T09:23:16.196Z,74
2022-09-01T09:24:21.668Z,74
2022-09-01T09:25:21.338Z,74
2022-09-01T09:26:24.371Z,73
2022-09-01T09:27:16.345Z,73
2022-09-01T09:28:18.901Z,73
2022-09-01T09:29:16.692Z,73
2022-09-01T09:30:19.352Z,72
2022-09-01T09:31:17.972Z,72
2022-09-01T09:33:47.495Z,72
2022-09-01T09:34:02.350Z,72
2022-09-01T09:34:16.953Z,72
2022-09-01T09:35:19.119Z,71
2022-09-01T09:36:09.992Z,71
2022-09-01T09:37:18.029Z,72
2022-09-01T09:38:11.388Z,72
2022-09-01T09:39:20.956Z,71
2022-09-01T09:40:17.387Z,71
2022-09-01T09:41:31.180Z,71
2022-09-01T09:42:21.751Z,70
2022-09-01T09:43:18.070Z,70
2022-09-01T09:44:17.743Z,70
2022-09-01T09:45:18.097Z,70
2022-09-01T09:46:30.046Z,70
2022-09-01T09:47:49.527Z,70
2022-09-01T09:48:15.019Z,70
2022-09-01T09:49:17.973Z,69
2022-09-01T09:50:11.816Z,69
2022-09-01T09:51:16.475Z,69
2022-09-01T09:52:20.630Z,69
2022-09-01T09:53:16.322Z,69
2022-09-01T09:54:10.170Z,69
2022-09-01T09:55:22.213Z,69
2022-09-01T09:56:11.584Z,69
2022-09-01T09:57:15.930Z,69
2022-09-01T09:58:15.701Z,69
2022-09-01T09:59:25.421Z,68
2022-09-01T10:00:17.594Z,68
2022-09-01T10:01:20.045Z,68
2022-09-01T10:02:15.477Z,68
2022-09-01T10:03:18.856Z,68
2022-09-01T10:04:17.255Z,67
2022-09-01T10:05:15.176Z,67
2022-09-01T10:06:17.620Z,67
2022-09-01T10:07:19.275Z,67
2022-09-01T10:08:16.652Z,68
2022-09-01T10:09:23.965Z,67
2022-09-01T10:10:19.073Z,67
2022-09-01T10:11:18.465Z,67
2022-09-01T10:12:12.192Z,67
2022-09-01T10:13:22.638Z,67
2022-09-01T10:14:49.851Z,67
2022-09-01T10:15:19.961Z,67
2022-09-01T10:16:23.916Z,67
2022-09-01T10:17:20.010Z,67
2022-09-01T10:18:35.219Z,67
2022-09-01T10:19:22.645Z,67
2022-09-01T10:20:17.664Z,67
2022-09-01T10:21:09.290Z,67
2022-09-01T10:22:19.290Z,67
2022-09-01T10:23:22.115Z,67
2022-09-01T10:25:10.155Z,67
2022-09-01T10:26:23.166Z,67
2022-09-01T10:27:20.674Z,67
2022-09-01T10:28:22.443Z,67
2022-09-01T10:29:15.617Z,67
2022-09-01T10:30:23.818Z,67
2022-09-01T10:31:13.085Z,67
2022-09-01T10:33:02.275Z,68
2022-09-01T10:33:26.366Z,68
2022-09-01T10:34:21.647Z,67
2022-09-01T10:35:20.511Z,67
2022-09-01T10:36:18.971Z,67
2022-09-01T10:37:22.834Z,67
2022-09-01T10:38:14.173Z,67
2022-09-01T10:39:35.519Z,67
2022-09-01T10:40:10.760Z,67
2022-09-01T10:41:21.476Z,67
2022-09-01T10:42:19.372Z,67
2022-09-01T10:43:18.788Z,67
2022-09-01T10:44:19.270Z,67
2022-09-01T10:45:16.271Z,67
2022-09-01T10:46:26.765Z,67
2022-09-01T10:47:20.852Z,67
2022-09-01T10:48:33.253Z,67
2022-09-01T10:49:17.983Z,67
2022-09-01T10:50:18.086Z,67
2022-09-01T10:52:20.581Z,67
2022-09-01T10:53:26.816Z,67
2022-09-01T10:55:16.256Z,67
2022-09-01T10:57:20.502Z,68
2022-09-01T10:59:59.086Z,68
2022-09-01T11:00:00.140Z,67
2022-09-01T11:01:14.323Z,68
2022-09-01T11:01:51.086Z,68
2022-09-01T11:02:48.702Z,68
2022-09-01T11:03:58.397Z,68
2022-09-01T11:05:11.419Z,68
2022-09-01T11:06:19.510Z,68
2022-09-01T11:08:25.809Z,67
2022-09-01T11:09:17.321Z,67
2022-09-01T11:10:36.424Z,67
2022-09-01T11:11:15.663Z,68
2022-09-01T11:12:29.182Z,68
2022-09-01T11:13:10.586Z,68
2022-09-01T11:14:20.066Z,68
2022-09-01T11:15:17.164Z,67
2022-09-01T11:16:45.705Z,68
2022-09-01T11:17:15.888Z,68
2022-09-01T11:18:19.633Z,68
2022-09-01T11:19:22.272Z,67
2022-09-01T11:20:16.763Z,67
2022-09-01T11:21:19.224Z,67
2022-09-01T11:22:10.494Z,67
2022-09-01T11:23:19.681Z,67
2022-09-01T11:24:16.329Z,67
2022-09-01T11:25:18.983Z,67
2022-09-01T11:26:32.209Z,67
2022-09-01T11:27:16.991Z,66
2022-09-01T11:28:15.096Z,66
2022-09-01T11:29:19.333Z,66
2022-09-01T11:30:11.774Z,66
2022-09-01T11:31:18.588Z,67
2022-09-01T11:32:22.817Z,66
2022-09-01T11:33:15.073Z,66
2022-09-01T11:34:09.130Z,67
2022-09-01T11:35:17.487Z,67
2022-09-01T11:36:17.291Z,66
2022-09-01T11:37:17.182Z,65
2022-09-01T11:38:15.527Z,65
2022-09-01T11:39:25.021Z,65
2022-09-01T11:40:12.369Z,65
2022-09-01T11:41:14.934Z,65
2022-09-01T11:42:16.197Z,65
2022-09-01T11:43:21.418Z,65
2022-09-01T11:44:14.412Z,65
2022-09-01T11:45:26.198Z,65
2022-09-01T11:46:17.791Z,65
2022-09-01T11:47:20.906Z,64
2022-09-01T11:48:09.753Z,64
2022-09-01T11:49:17.461Z,64
2022-09-01T11:50:14.328Z,64
2022-09-01T11:51:21.089Z,64
2022-09-01T11:52:11.211Z,63
2022-09-01T11:53:16.079Z,63
2022-09-01T11:54:13.951Z,63
2022-09-01T11:55:17.794Z,63
2022-09-01T11:56:09.195Z,62
2022-09-01T11:57:12.350Z,62
2022-09-01T11:58:21.784Z,62
2022-09-01T11:59:16.537Z,63
2022-09-01T12:00:15.470Z,63
2022-09-01T12:01:15.934Z,63
2022-09-01T12:02:14.574Z,63
2022-09-01T12:03:17.065Z,63
2022-09-01T12:04:18.091Z,63
2022-09-01T12:05:16.284Z,63
2022-09-01T12:06:21.641Z,63
2022-09-01T12:07:15.212Z,63
2022-09-01T12:08:16.441Z,62
2022-09-01T12:09:21.235Z,62
2022-09-01T12:10:15.815Z,62
2022-09-01T12:11:18.497Z,62
2022-09-01T12:12:16.591Z,62
2022-09-01T12:13:16.187Z,62
2022-09-01T12:14:18.095Z,61
2022-09-01T12:15:20.870Z,61
2022-09-01T12:16:27.928Z,61
2022-09-01T12:17:18.211Z,60
2022-09-01T12:18:13.893Z,61
2022-09-01T12:19:17.535Z,61
2022-09-01T12:20:08.642Z,60
2022-09-01T12:21:15.878Z,60
2022-09-01T12:22:17.227Z,60
2022-09-01T12:23:14.889Z,60
2022-09-01T12:24:13.981Z,60
2022-09-01T12:25:13.464Z,60
2022-09-01T12:26:15.028Z,60
2022-09-01T12:27:17.031Z,59
2022-09-01T12:28:20.865Z,59
2022-09-01T12:29:17.266Z,59
2022-09-01T12:30:15.394Z,59
2022-09-01T12:31:15.942Z,58
2022-09-01T12:32:18.876Z,58
2022-09-01T12:33:42.804Z,58
2022-09-01T12:35:17.507Z,58
2022-09-01T12:36:16.088Z,58
2022-09-01T12:37:12.461Z,58
2022-09-01T12:38:17.582Z,58
2022-09-01T12:39:19.102Z,58
2022-09-01T12:40:12.043Z,58
2022-09-01T12:42:11.662Z,58
2022-09-01T12:43:18.280Z,58
2022-09-01T12:44:16.978Z,58
2022-09-01T12:45:16.318Z,58
2022-09-01T12:46:19.669Z,58
2022-09-01T12:47:17.919Z,58
2022-09-01T12:48:19.670Z,58
2022-09-01T12:49:28.541Z,58
2022-09-01T12:50:11.311Z,58
2022-09-01T12:51:16.555Z,58
2022-09-01T12:52:22.107Z,58
2022-09-01T12:53:19.250Z,57
2022-09-01T12:54:15.918Z,57
2022-09-01T12:55:47.206Z,57
2022-09-01T12:56:18.176Z,57
2022-09-01T12:57:15.416Z,57
2022-09-01T12:58:17.967Z,57
2022-09-01T12:59:40.561Z,57
2022-09-01T13:00:11.698Z,56
2022-09-01T13:01:23.046Z,57
2022-09-01T13:02:18.871Z,57
2022-09-01T13:03:15.910Z,57
2022-09-01T13:04:19.232Z,57
2022-09-01T13:05:18.498Z,57
2022-09-01T13:06:15.890Z,57
2022-09-01T13:07:16.399Z,57
2022-09-01T13:08:14.562Z,57
2022-09-01T13:09:17.102Z,57
2022-09-01T13:10:15.596Z,57
2022-09-01T13:11:17.201Z,57
2022-09-01T13:12:17.032Z,57
2022-09-01T13:13:15.705Z,57
2022-09-01T13:14:16.736Z,57
2022-09-01T13:15:21.821Z,57
2022-09-01T13:16:12.954Z,57
2022-09-01T13:17:20.434Z,58
2022-09-01T13:18:18.264Z,57
2022-09-01T13:19:30.364Z,58
2022-09-01T13:20:14.777Z,57
2022-09-01T13:21:09.802Z,57
2022-09-01T13:22:17.706Z,57
2022-09-01T13:23:15.927Z,57
2022-09-01T13:24:16.835Z,57
2022-09-01T13:25:19.395Z,57
2022-09-01T13:26:10.983Z,57
2022-09-01T13:27:31.421Z,57
2022-09-01T13:28:16.230Z,57
2022-09-01T13:29:17.269Z,56
2022-09-01T13:30:10.075Z,56
2022-09-01T13:32:24.507Z,56
2022-09-01T13:32:26.968Z,57
2022-09-01T13:33:30.582Z,57
2022-09-01T13:34:27.170Z,56
2022-09-01T13:35:16.448Z,56
2022-09-01T13:36:53.678Z,56
2022-09-01T13:37:13.187Z,56
2022-09-01T13:38:15.707Z,56
2022-09-01T13:39:23.042Z,56
2022-09-01T13:40:12.363Z,56
2022-09-01T13:41:19.466Z,56
2022-09-01T13:42:16.079Z,56
2022-09-01T13:43:17.505Z,56
2022-09-01T13:44:15.444Z,56
2022-09-01T13:45:14.331Z,56
2022-09-01T13:46:16.990Z,56
2022-09-01T13:48:19.649Z,56
2022-09-01T13:50:11.283Z,56
2022-09-01T13:51:25.077Z,56
2022-09-01T13:52:15.719Z,56
2022-09-01T13:53:15.469Z,56
2022-09-01T13:54:14.260Z,56
2022-09-01T13:55:13.485Z,56
2022-09-01T13:56:17.691Z,56
2022-09-01T13:57:17.438Z,56
2022-09-01T13:58:14.665Z,56
2022-09-01T13:59:14.862Z,56
2022-09-01T14:00:13.291Z,56
2022-09-01T14:01:15.536Z,56
2022-09-01T14:02:15.478Z,56
2022-09-01T14:03:14.067Z,56
2022-09-01T14:04:16.615Z,56
2022-09-01T14:05:15.119Z,56
2022-09-01T14:06:17.628Z,56
2022-09-01T14:07:15.202Z,55
2022-09-01T14:08:15.959Z,55
2022-09-01T14:09:24.730Z,55
2022-09-01T14:10:09.731Z,55
2022-09-01T14:11:14.428Z,55
2022-09-01T14:12:16.252Z,54
2022-09-01T14:13:15.013Z,54
2022-09-01T14:14:17.347Z,54
2022-09-01T14:15:29.562Z,54
2022-09-01T14:16:22.921Z,54
2022-09-01T14:17:12.830Z,54
2022-09-01T14:18:15.494Z,53
2022-09-01T14:19:15.208Z,53
2022-09-01T14:20:16.371Z,53
2022-09-01T14:21:17.169Z,53
2022-09-01T14:22:16.828Z,53
2022-09-01T14:23:17.299Z,53
2022-09-01T14:24:15.985Z,53
2022-09-01T14:25:19.113Z,53
2022-09-01T14:26:17.289Z,53
2022-09-01T14:27:13.234Z,53
2022-09-01T14:28:22.329Z,53
2022-09-01T14:29:13.586Z,53
2022-09-01T14:30:15.590Z,53
2022-09-01T14:31:13.210Z,53
2022-09-01T14:32:17.260Z,52
2022-09-01T14:33:15.721Z,52
2022-09-01T14:34:13.793Z,52
2022-09-01T14:35:15.932Z,52
2022-09-01T14:36:17.317Z,52
2022-09-01T14:37:19.240Z,52
2022-09-01T14:38:12.479Z,52
2022-09-01T14:39:15.458Z,52
2022-09-01T14:40:23.353Z,52
2022-09-01T14:41:18.505Z,52
2022-09-01T14:42:14.787Z,51
2022-09-01T14:43:14.604Z,51
2022-09-01T14:44:15.661Z,51
2022-09-01T14:45:16.438Z,51
2022-09-01T14:46:17.277Z,51
2022-09-01T14:47:23.865Z,51
2022-09-01T14:48:17.747Z,51